Time;durP1;ratioP1;P1;durP2;ratioP2;P2;SDS_P1;SDS_P2;PMS_P1;PMS_P2;Temp;Humidity;BMP_temperature;BMP_pressure;BME280_temperature;BME280_humidity;BME280_pressure;Samples;Min_cycle;Max_cycle;Signal;HPM_P1;HPM_P2
2022/08/19 00:07:07;;;;;;;10.4;14;;;;;;;19.6;100;98070;;;;
2022/08/19 00:17:07;;;;;;;10.8;14.6;;;;;;;19.5;100;98070;;;;
2022/08/19 00:28:07;;;;;;;10.8;14.6;;;;;;;19.5;100;98070;;;;
2022/08/19 00:39:07;;;;;;;10.8;14.6;;;;;;;19.5;100;98070;;;;
2022/08/19 00:50:07;;;;;;;11.1;13.4;;;;;;;19.4;100;98060;;;;
2022/08/19 01:01:07;;;;;;;11.1;13.4;;;;;;;19.4;100;98040;;;;
2022/08/19 01:12:07;;;;;;;10.4;12.6;;;;;;;19.4;100;98050;;;;
2022/08/19 01:22:07;;;;;;;10.4;12.6;;;;;;;19.1;100;98050;;;;
2022/08/19 01:33:07;;;;;;;10.4;12.6;;;;;;;19.1;100;98020;;;;
2022/08/19 01:44:07;;;;;;;11;17.3;;;;;;;19;100;98030;;;;
2022/08/19 01:54:07;;;;;;;11;17.3;;;;;;;18.9;100;98020;;;;
2022/08/19 02:05:07;;;;;;;11;17.3;;;;;;;18.8;100;98030;;;;
2022/08/19 02:15:07;;;;;;;11.6;15.5;;;;;;;18.6;100;98010;;;;
2022/08/19 02:26:07;;;;;;;11.6;15.5;;;;;;;18.5;100;98000;;;;
2022/08/19 02:36:07;;;;;;;11.6;15.5;;;;;;;18.4;100;98000;;;;
2022/08/19 02:47:07;;;;;;;11.3;16.7;;;;;;;18.5;100;98010;;;;
2022/08/19 02:57:07;;;;;;;11.3;16.7;;;;;;;18.3;100;98020;;;;
2022/08/19 03:08:08;;;;;;;11.3;16.7;;;;;;;18.3;100;98030;;;;
2022/08/19 03:18:07;;;;;;;11.5;14.2;;;;;;;18;100;98020;;;;
2022/08/19 03:29:08;;;;;;;11.5;14.2;;;;;;;18.2;100;98030;;;;
2022/08/19 03:39:08;;;;;;;11.5;14.2;;;;;;;18.1;100;98030;;;;
2022/08/19 03:49:07;;;;;;;11.3;14.5;;;;;;;18.1;100;98030;;;;
2022/08/19 04:00:07;;;;;;;11.3;14.5;;;;;;;18.2;100;98030;;;;
2022/08/19 04:11:07;;;;;;;11.1;13.9;;;;;;;18.2;100;98020;;;;
2022/08/19 04:21:07;;;;;;;11.1;13.9;;;;;;;18.4;100;98030;;;;
2022/08/19 04:31:08;;;;;;;11.1;13.9;;;;;;;18.7;100;98030;;;;
2022/08/19 04:51:07;;;;;;;10.6;13.6;;;;;;;19.2;100;98070;;;;
2022/08/19 05:02:07;;;;;;;10.6;13.6;;;;;;;19.7;100;98090;;;;
2022/08/19 05:13:08;;;;;;;11;18;;;;;;;20.2;100;98090;;;;
2022/08/19 05:23:07;;;;;;;11;18;;;;;;;20.5;100;98100;;;;
2022/08/19 05:33:09;;;;;;;11;18;;;;;;;20.9;100;98090;;;;
2022/08/19 05:43:07;;;;;;;11.9;14.7;;;;;;;21.5;100;98090;;;;
2022/08/19 05:54:08;;;;;;;11.9;14.7;;;;;;;22;100;98090;;;;
2022/08/19 06:04:07;;;;;;;11.9;14.7;;;;;;;22.7;100;98100;;;;
2022/08/19 06:15:07;;;;;;;10.9;15.7;;;;;;;23;100;98100;;;;
2022/08/19 06:26:08;;;;;;;10.9;15.7;;;;;;;23.3;100;98110;;;;
2022/08/19 06:37:07;;;;;;;10.9;15.7;;;;;;;23.9;100;98130;;;;
2022/08/19 06:47:07;;;;;;;9.9;13.4;;;;;;;24.2;100;98130;;;;
2022/08/19 06:57:08;;;;;;;9.9;13.4;;;;;;;24.9;100;98150;;;;
2022/08/19 07:08:07;;;;;;;9.9;13.4;;;;;;;25.4;100;98160;;;;
2022/08/19 07:19:07;;;;;;;9.6;15.3;;;;;;;26.1;100;98150;;;;
2022/08/19 07:29:07;;;;;;;9.6;15.3;;;;;;;26.2;100;98160;;;;
2022/08/19 07:40:07;;;;;;;9.6;15.3;;;;;;;26.9;100;98160;;;;
2022/08/19 07:50:07;;;;;;;8.4;12.1;;;;;;;27.2;100;98170;;;;
2022/08/19 08:01:07;;;;;;;8.4;12.1;;;;;;;27.9;100;98180;;;;
2022/08/19 08:11:07;;;;;;;8.1;14.7;;;;;;;28;100;98180;;;;
2022/08/19 08:21:07;;;;;;;8.1;14.7;;;;;;;28.6;100;98190;;;;
2022/08/19 08:31:07;;;;;;;8.1;14.7;;;;;;;29.2;100;98200;;;;
2022/08/19 08:42:07;;;;;;;8;13;;;;;;;29.4;100;98190;;;;
2022/08/19 08:53:07;;;;;;;8;13;;;;;;;29.6;100;98190;;;;
2022/08/19 09:03:07;;;;;;;8;13;;;;;;;29.9;100;98190;;;;
2022/08/19 09:14:07;;;;;;;7.1;10.4;;;;;;;30.1;100;98180;;;;
2022/08/19 09:24:07;;;;;;;7.1;10.4;;;;;;;30.6;100;98180;;;;
2022/08/19 09:35:07;;;;;;;7.1;10.4;;;;;;;30.6;100;98170;;;;
2022/08/19 09:45:07;;;;;;;6.3;10.6;;;;;;;31.1;100;98170;;;;
2022/08/19 09:56:07;;;;;;;6.3;10.6;;;;;;;31.1;100;98160;;;;
2022/08/19 10:06:08;;;;;;;6.3;10.6;;;;;;;31.6;100;98160;;;;
2022/08/19 10:17:07;;;;;;;6.8;11.7;;;;;;;32.2;100;98140;;;;
2022/08/19 10:28:07;;;;;;;6.8;11.7;;;;;;;32.6;99.6;98150;;;;
2022/08/19 10:39:07;;;;;;;6.8;11.7;;;;;;;32.3;100;98150;;;;
2022/08/19 10:49:07;;;;;;;7.2;11;;;;;;;32.7;96.9;98150;;;;
2022/08/19 11:00:07;;;;;;;7.2;11;;;;;;;32.6;100;98140;;;;
2022/08/19 11:10:07;;;;;;;7.2;11;;;;;;;32.5;97.6;98130;;;;
2022/08/19 11:20:08;;;;;;;7.4;13.9;;;;;;;32.4;98.6;98120;;;;
2022/08/19 11:30:07;;;;;;;7.4;13.9;;;;;;;32.7;100;98100;;;;
2022/08/19 11:41:07;;;;;;;7.4;13.9;;;;;;;32.5;100;98090;;;;
2022/08/19 11:51:07;;;;;;;6.9;9.4;;;;;;;32.8;99.1;98100;;;;
2022/08/19 12:02:07;;;;;;;6.9;9.4;;;;;;;33;96.8;98110;;;;
2022/08/19 12:13:07;;;;;;;6;9.5;;;;;;;33.2;96.7;98110;;;;
2022/08/19 12:23:07;;;;;;;6;9.5;;;;;;;33.6;91.2;98110;;;;
2022/08/19 12:34:07;;;;;;;6;9.5;;;;;;;32.9;87.8;98110;;;;
2022/08/19 12:45:07;;;;;;;6.1;9.2;;;;;;;33;89.8;98090;;;;
2022/08/19 12:55:07;;;;;;;6.1;9.2;;;;;;;33;86.9;98090;;;;
2022/08/19 13:06:07;;;;;;;6.1;9.2;;;;;;;33.6;83.6;98090;;;;
2022/08/19 13:16:07;;;;;;;5.7;10;;;;;;;33.4;77;98080;;;;
2022/08/19 13:26:07;;;;;;;5.7;10;;;;;;;33.4;77.4;98070;;;;
2022/08/19 13:37:07;;;;;;;5.7;10;;;;;;;33.5;74.3;98070;;;;
2022/08/19 13:47:08;;;;;;;5.2;8.3;;;;;;;33.7;67.7;98060;;;;
2022/08/19 13:57:07;;;;;;;5.2;8.3;;;;;;;33.6;72.9;98050;;;;
2022/08/19 14:07:07;;;;;;;5.2;8.3;;;;;;;33.8;74.6;98050;;;;
2022/08/19 14:18:07;;;;;;;5.5;9;;;;;;;34;74.3;98030;;;;
2022/08/19 14:29:07;;;;;;;5.5;9;;;;;;;34;73.9;98020;;;;
2022/08/19 14:40:07;;;;;;;5.5;9;;;;;;;34;75.5;98030;;;;
2022/08/19 14:51:07;;;;;;;5.3;11.4;;;;;;;34.1;76.7;98030;;;;
2022/08/19 15:01:07;;;;;;;5.3;11.4;;;;;;;33.5;78.6;98020;;;;
2022/08/19 15:12:07;;;;;;;5.4;9.4;;;;;;;33.3;80.7;98000;;;;
2022/08/19 15:23:07;;;;;;;5.4;9.4;;;;;;;33.6;79.2;97980;;;;
2022/08/19 15:34:07;;;;;;;5.4;9.4;;;;;;;34.1;77.4;97980;;;;
2022/08/19 15:44:08;;;;;;;5.6;8.6;;;;;;;34.4;77.4;97980;;;;
2022/08/19 15:55:07;;;;;;;5.6;8.6;;;;;;;34.9;74.5;97980;;;;
2022/08/19 16:06:26;;;;;;;5.6;8.6;;;;;;;32.9;79.9;97970;;;;
2022/08/19 16:15:07;;;;;;;8.7;10.8;;;;;;;32.7;83.2;97970;;;;
2022/08/19 16:26:08;;;;;;;8.7;10.8;;;;;;;31.7;86.5;97960;;;;
2022/08/19 16:37:08;;;;;;;8.7;10.8;;;;;;;30.8;89.4;97980;;;;
2022/08/19 16:48:07;;;;;;;9;14.2;;;;;;;30.4;92.7;97990;;;;
2022/08/19 16:59:07;;;;;;;9;14.2;;;;;;;29.9;95.1;98000;;;;
2022/08/19 17:09:07;;;;;;;9;14.2;;;;;;;29.4;97.5;97980;;;;
2022/08/19 17:19:07;;;;;;;6.6;11;;;;;;;29.1;98.4;97970;;;;
2022/08/19 17:30:07;;;;;;;6.6;11;;;;;;;28.7;100;97980;;;;
2022/08/19 17:41:07;;;;;;;6.6;11;;;;;;;28.6;100;97990;;;;
2022/08/19 17:51:07;;;;;;;7;10.8;;;;;;;28.2;100;98000;;;;
2022/08/19 18:02:07;;;;;;;7;10.8;;;;;;;28;100;98010;;;;
2022/08/19 18:13:08;;;;;;;6.8;9.8;;;;;;;27.8;100;98010;;;;
2022/08/19 18:24:07;;;;;;;6.8;9.8;;;;;;;27.9;100;98040;;;;
2022/08/19 18:34:08;;;;;;;6.8;9.8;;;;;;;27.8;100;98040;;;;
2022/08/19 18:55:07;;;;;;;8;13;;;;;;;26;100;98170;;;;
2022/08/19 19:05:07;;;;;;;8;13;;;;;;;25.1;100;98230;;;;
2022/08/19 19:15:07;;;;;;;7.6;16.1;;;;;;;24.5;100;98230;;;;
2022/08/19 19:26:09;;;;;;;7.6;16.1;;;;;;;24.2;100;98240;;;;
2022/08/19 19:36:07;;;;;;;7.6;16.1;;;;;;;24.2;100;98230;;;;
2022/08/19 19:47:07;;;;;;;7;11.1;;;;;;;24;100;98230;;;;
2022/08/19 19:57:07;;;;;;;7;11.1;;;;;;;23.9;100;98220;;;;
2022/08/19 20:09:11;;;;;;;7;11.1;;;;;;;23.7;100;98220;;;;
2022/08/19 20:18:07;;;;;;;7.5;12.7;;;;;;;23.5;100;98230;;;;
2022/08/19 20:28:07;;;;;;;7.5;12.7;;;;;;;23;100;98250;;;;
2022/08/19 20:39:07;;;;;;;7.5;12.7;;;;;;;23;100;98250;;;;
2022/08/19 20:50:07;;;;;;;7.1;11.5;;;;;;;22.8;100;98240;;;;
2022/08/19 21:01:09;;;;;;;7.1;11.5;;;;;;;22.7;100;98220;;;;
2022/08/19 21:11:08;;;;;;;7.1;11.5;;;;;;;22.8;100;98220;;;;
2022/08/19 21:21:07;;;;;;;7.1;9.8;;;;;;;22.5;100;98220;;;;
2022/08/19 21:32:09;;;;;;;7.1;9.8;;;;;;;22.3;100;98210;;;;
2022/08/19 21:42:07;;;;;;;7.1;9.8;;;;;;;22.2;100;98210;;;;
2022/08/19 21:52:07;;;;;;;7.1;11.3;;;;;;;22.4;100;98200;;;;
2022/08/19 22:02:09;;;;;;;7.1;11.3;;;;;;;22.5;100;98220;;;;
2022/08/19 22:13:08;;;;;;;8.4;12.5;;;;;;;22.3;100;98220;;;;
2022/08/19 22:24:07;;;;;;;8.4;12.5;;;;;;;22.2;100;98220;;;;
2022/08/19 22:34:08;;;;;;;8.4;12.5;;;;;;;22.2;100;98210;;;;
2022/08/19 22:45:07;;;;;;;8.3;12.4;;;;;;;22.1;100;98210;;;;
2022/08/19 22:55:07;;;;;;;8.3;12.4;;;;;;;22;100;98210;;;;
2022/08/19 23:06:07;;;;;;;8.3;12.4;;;;;;;22;100;98210;;;;
2022/08/19 23:17:07;;;;;;;7.9;12;;;;;;;21.8;100;98210;;;;
2022/08/19 23:37:07;;;;;;;7.9;12;;;;;;;21.5;100;98200;;;;
2022/08/19 23:48:08;;;;;;;8.8;14.4;;;;;;;21.3;100;98210;;;;
2022/08/19 23:59:07;;;;;;;8.8;14.4;;;;;;;21.2;100;98210;;;;
